Time;durP1;ratioP1;P1;durP2;ratioP2;P2;SDS_P1;SDS_P2;PMS_P1;PMS_P2;Temp;Humidity;BMP_temperature;BMP_pressure;BME280_temperature;BME280_humidity;BME280_pressure;Samples;Min_cycle;Max_cycle;Signal;HPM_P1;HPM_P2
2021/01/26 00:01:05;;;;;;;20.10;3.50;;;5.60;99.90;;;;;;5023738;28;40467;-74
2021/01/26 00:03:32;;;;;;;11.80;3.07;;;5.60;99.90;;;;;;5019479;28;37665;-75
2021/01/26 00:05:58;;;;;;;17.77;3.73;;;5.60;99.90;;;;;;5011062;28;37142;-74
2021/01/26 00:08:24;;;;;;;14.60;3.07;;;5.60;99.90;;;;;;5011821;28;39110;-75
2021/01/26 00:10:50;;;;;;;18.93;3.83;;;5.60;99.90;;;;;;5019999;28;38407;-74
2021/01/26 00:13:19;;;;;;;22.57;4.07;;;5.70;99.90;;;;;;5015897;28;38519;-74
2021/01/26 00:15:46;;;;;;;17.87;3.40;;;5.70;99.90;;;;;;5016691;28;37074;-74
2021/01/26 00:18:12;;;;;;;15.87;3.57;;;5.70;99.90;;;;;;5016697;28;38709;-74
2021/01/26 00:20:39;;;;;;;16.80;3.17;;;5.60;99.90;;;;;;5015052;28;38458;-74
2021/01/26 00:23:05;;;;;;;23.10;3.57;;;5.60;99.90;;;;;;5013181;28;37972;-74
2021/01/26 00:25:35;;;;;;;20.40;3.43;;;5.60;99.90;;;;;;5011882;28;37281;-74
2021/01/26 00:28:04;;;;;;;15.87;3.47;;;5.70;99.90;;;;;;5030002;28;40084;-73
2021/01/26 00:30:34;;;;;;;19.37;4.27;;;5.60;99.90;;;;;;5015252;28;38994;-73
2021/01/26 00:33:03;;;;;;;14.37;3.27;;;5.60;99.90;;;;;;5019461;28;38094;-74
2021/01/26 00:35:30;;;;;;;18.87;3.80;;;5.60;99.90;;;;;;5012331;28;46605;-74
2021/01/26 00:37:58;;;;;;;17.73;3.80;;;5.50;99.90;;;;;;5017145;28;38982;-75
2021/01/26 00:40:24;;;;;;;21.73;3.97;;;5.50;99.90;;;;;;5016461;28;38910;-75
2021/01/26 00:42:51;;;;;;;19.63;3.77;;;5.40;99.90;;;;;;5020894;28;38372;-76
2021/01/26 00:45:18;;;;;;;18.67;3.33;;;5.40;99.90;;;;;;5013197;28;37115;-74
2021/01/26 00:47:45;;;;;;;12.60;2.90;;;5.40;99.90;;;;;;5014385;28;40110;-75
2021/01/26 00:50:12;;;;;;;20.47;4.00;;;5.40;99.90;;;;;;5020151;28;40046;-75
2021/01/26 00:52:38;;;;;;;23.27;3.93;;;5.40;99.90;;;;;;5016496;28;38352;-75
2021/01/26 00:55:06;;;;;;;21.27;4.47;;;5.30;99.90;;;;;;5010904;28;37101;-75
2021/01/26 00:57:32;;;;;;;19.33;4.90;;;5.30;99.90;;;;;;5018069;28;39468;-75
2021/01/26 00:59:58;;;;;;;17.57;3.50;;;5.30;99.90;;;;;;5023891;28;39047;-74
2021/01/26 01:02:24;;;;;;;17.27;3.73;;;5.20;99.90;;;;;;5012295;28;38764;-75
2021/01/26 01:04:50;;;;;;;19.70;3.53;;;5.20;99.90;;;;;;5018702;28;37075;-75
2021/01/26 01:07:17;;;;;;;19.33;3.53;;;5.20;99.90;;;;;;5015867;28;40470;-74
2021/01/26 01:09:44;;;;;;;11.70;2.80;;;5.30;99.90;;;;;;5030835;28;39186;-74
2021/01/26 01:12:11;;;;;;;12.77;3.00;;;5.30;99.90;;;;;;5013172;28;37137;-74
2021/01/26 01:14:39;;;;;;;18.67;3.63;;;5.40;99.90;;;;;;5014844;28;38449;-74
2021/01/26 01:17:05;;;;;;;18.60;2.97;;;5.50;99.90;;;;;;5019795;28;39169;-74
2021/01/26 01:19:31;;;;;;;14.43;2.60;;;5.50;99.90;;;;;;5024162;28;37339;-73
2021/01/26 01:21:57;;;;;;;14.63;3.57;;;5.60;99.90;;;;;;5037536;28;36679;-74
2021/01/26 01:24:23;;;;;;;15.20;2.50;;;5.60;99.90;;;;;;5040894;28;37046;-74
2021/01/26 01:26:50;;;;;;;14.13;3.63;;;5.60;99.90;;;;;;5031612;28;37759;-73
2021/01/26 01:29:16;;;;;;;14.93;2.67;;;5.70;99.90;;;;;;5068225;28;39002;-75
2021/01/26 01:31:42;;;;;;;11.17;3.00;;;5.70;99.90;;;;;;5035862;27;37383;-75
2021/01/26 01:34:08;;;;;;;12.10;2.90;;;5.80;99.90;;;;;;5034114;27;36374;-74
2021/01/26 01:36:38;;;;;;;18.97;3.40;;;5.80;99.90;;;;;;5031654;28;39837;-73
2021/01/26 01:39:06;;;;;;;13.27;3.27;;;5.80;99.90;;;;;;5037493;28;39888;-74
2021/01/26 01:41:36;;;;;;;26.57;3.57;;;5.80;99.90;;;;;;5070317;27;37829;-73
2021/01/26 01:44:07;;;;;;;19.73;3.70;;;5.80;99.90;;;;;;5039358;28;36798;-73
2021/01/26 01:46:40;;;;;;;23.33;3.17;;;5.80;99.90;;;;;;5061400;27;40001;-73
2021/01/26 01:49:10;;;;;;;19.67;3.47;;;5.80;99.90;;;;;;5016110;28;38960;-73
2021/01/26 01:51:40;;;;;;;19.17;4.07;;;5.70;99.90;;;;;;5021413;28;37477;-74
2021/01/26 01:54:15;;;;;;;21.10;4.40;;;5.70;99.90;;;;;;5031490;28;37608;-73
2021/01/26 01:56:55;;;;;;;12.97;3.17;;;5.80;99.90;;;;;;5038535;28;39701;-73
2021/01/26 01:59:26;;;;;;;16.93;3.30;;;5.80;99.90;;;;;;5015669;28;38215;-73
2021/01/26 02:01:52;;;;;;;18.63;3.30;;;5.80;99.90;;;;;;5017739;28;38810;-74
2021/01/26 02:04:22;;;;;;;20.00;4.03;;;5.80;99.90;;;;;;5012969;28;35814;-74
2021/01/26 02:06:53;;;;;;;17.93;4.27;;;5.80;99.90;;;;;;5015645;28;39748;-73
2021/01/26 02:09:31;;;;;;;25.57;4.10;;;5.80;99.90;;;;;;5016555;28;38228;-74
2021/01/26 02:11:57;;;;;;;16.47;3.50;;;5.80;99.90;;;;;;5012197;28;38560;-74
2021/01/26 02:14:30;;;;;;;15.00;5.17;;;5.80;99.90;;;;;;5018984;28;37168;-75
2021/01/26 02:17:03;;;;;;;;;;;5.80;99.90;;;;;;5040467;28;39985;-73
2021/01/26 02:19:38;;;;;;;16.48;3.05;;;5.70;99.90;;;;;;5034620;27;48877;-73
2021/01/26 02:22:42;;;;;;;16.80;3.33;;;5.70;99.90;;;;;;5051525;28;38098;-73
2021/01/26 02:25:41;;;;;;;25.23;3.73;;;5.80;99.90;;;;;;5053933;28;37563;-73
2021/01/26 02:28:45;;;;;;;12.97;3.30;;;5.70;99.90;;;;;;5042686;27;38696;-73
2021/01/26 02:31:46;;;;;;;20.50;3.90;;;5.70;99.90;;;;;;5041533;27;38057;-73
2021/01/26 02:34:21;;;;;;;23.27;3.90;;;5.70;99.90;;;;;;5018783;28;38420;-72
2021/01/26 02:37:13;;;;;;;23.33;3.67;;;5.70;99.90;;;;;;5040596;27;37313;-73
2021/01/26 02:40:14;;;;;;;15.85;3.22;;;5.80;99.90;;;;;;5033975;28;49577;-74
2021/01/26 02:43:05;;;;;;;20.57;3.37;;;5.80;99.90;;;;;;5031659;28;46001;-74
2021/01/26 02:45:37;;;;;;;17.47;3.60;;;5.80;99.90;;;;;;5013024;28;47140;-74
2021/01/26 02:48:03;;;;;;;17.13;3.25;;;5.70;99.90;;;;;;5012241;28;37277;-74
2021/01/26 02:50:42;;;;;;;20.27;3.77;;;5.70;99.90;;;;;;5016003;28;38671;-74
2021/01/26 02:53:16;;;;;;;19.90;4.17;;;5.70;99.90;;;;;;5030056;28;39658;-75
2021/01/26 02:55:55;;;;;;;21.20;3.40;;;5.70;99.90;;;;;;5019962;28;38166;-74
2021/01/26 02:58:48;;;;;;;24.47;3.90;;;5.70;99.90;;;;;;5011132;28;37607;-75
2021/01/26 03:01:16;;;;;;;18.00;4.38;;;5.70;99.90;;;;;;5017291;28;38596;-75
2021/01/26 03:03:45;;;;;;;21.87;4.70;;;5.70;99.90;;;;;;5013365;28;38441;-74
2021/01/26 03:06:17;;;;;;;22.60;4.30;;;5.70;99.90;;;;;;5018136;28;36475;-74
2021/01/26 03:09:09;;;;;;;20.58;4.90;;;5.60;99.90;;;;;;5015718;28;38264;-74
2021/01/26 03:11:51;;;;;;;25.37;3.80;;;5.40;99.90;;;;;;5018671;28;47290;-73
2021/01/26 03:14:43;;;;;;;23.03;3.70;;;5.30;99.90;;;;;;5019205;28;38330;-74
2021/01/26 03:17:18;;;;;;;25.13;4.23;;;5.20;99.90;;;;;;5013989;28;36446;-74
2021/01/26 03:19:49;;;;;;;22.60;4.30;;;5.20;99.90;;;;;;5019778;28;38334;-74
2021/01/26 03:22:18;;;;;;;33.77;6.03;;;5.20;99.90;;;;;;5019976;28;39468;-73
2021/01/26 03:24:45;;;;;;;17.93;3.60;;;5.10;99.90;;;;;;5017369;28;39307;-73
2021/01/26 03:27:20;;;;;;;25.30;4.20;;;5.10;99.90;;;;;;5018164;28;37578;-73
2021/01/26 03:29:51;;;;;;;20.43;4.10;;;5.10;99.90;;;;;;5026927;28;37503;-74
2021/01/26 03:32:29;;;;;;;25.37;3.93;;;5.10;99.90;;;;;;5012680;28;39211;-73
2021/01/26 03:34:55;;;;;;;23.10;3.43;;;5.10;99.90;;;;;;5027040;28;39178;-73
2021/01/26 03:37:21;;;;;;;30.00;4.87;;;5.20;99.90;;;;;;5022036;28;37932;-73
2021/01/26 03:39:47;;;;;;;22.40;4.43;;;5.30;99.90;;;;;;5022468;28;38638;-73
2021/01/26 03:42:14;;;;;;;18.03;3.60;;;5.40;99.90;;;;;;5020272;28;39664;-73
2021/01/26 03:44:40;;;;;;;21.43;3.60;;;5.40;99.90;;;;;;5012544;28;39257;-76
2021/01/26 03:47:28;;;;;;;21.30;4.03;;;5.40;99.90;;;;;;5019220;28;38815;-73
2021/01/26 03:50:14;;;;;;;18.00;3.23;;;5.30;99.90;;;;;;5017921;28;34713;-74
2021/01/26 03:53:14;;;;;;;19.57;3.77;;;5.40;99.90;;;;;;5015496;28;46770;-74
2021/01/26 03:55:43;;;;;;;24.47;3.63;;;5.40;99.90;;;;;;5018573;28;47159;-73
2021/01/26 03:58:49;;;;;;;15.47;3.07;;;5.40;99.90;;;;;;5017858;28;37710;-73
2021/01/26 04:01:27;;;;;;;20.67;3.93;;;5.30;99.90;;;;;;5022535;28;37992;-72
2021/01/26 04:04:04;;;;;;;16.70;3.57;;;5.30;99.90;;;;;;5016202;28;39594;-74
2021/01/26 04:06:46;;;;;;;15.57;3.33;;;5.30;99.90;;;;;;5018886;28;47438;-76
2021/01/26 04:09:18;;;;;;;20.08;4.18;;;5.20;99.90;;;;;;5017989;28;37949;-73
2021/01/26 04:11:50;;;;;;;18.37;3.60;;;5.10;99.90;;;;;;5009671;28;37880;-73
2021/01/26 04:14:23;;;;;;;28.17;4.30;;;5.20;99.90;;;;;;5015477;28;39681;-74
2021/01/26 04:16:59;;;;;;;22.80;4.00;;;5.30;99.90;;;;;;5015425;28;38319;-75
2021/01/26 04:19:32;;;;;;;18.73;3.43;;;5.30;99.90;;;;;;5018437;28;38893;-75
2021/01/26 04:22:00;;;;;;;16.93;3.30;;;5.40;99.90;;;;;;5020028;28;37311;-74
2021/01/26 04:24:33;;;;;;;18.70;3.97;;;5.30;99.90;;;;;;5021736;28;39212;-74
2021/01/26 04:27:13;;;;;;;20.00;3.57;;;5.30;99.90;;;;;;5012376;28;38242;-74
2021/01/26 04:29:39;;;;;;;21.50;3.60;;;5.30;99.90;;;;;;5017818;28;48646;-74
2021/01/26 04:32:06;;;;;;;18.80;4.63;;;5.30;99.90;;;;;;5020011;28;37264;-73
2021/01/26 04:34:32;;;;;;;22.53;3.30;;;5.40;99.90;;;;;;5017844;28;39189;-74
2021/01/26 04:36:58;;;;;;;21.07;5.20;;;5.40;99.90;;;;;;5017059;28;39014;-73
2021/01/26 04:39:24;;;;;;;21.40;3.60;;;5.40;99.90;;;;;;5015641;28;39528;-73
2021/01/26 04:41:59;;;;;;;23.67;4.03;;;5.40;99.90;;;;;;5013429;28;37924;-73
2021/01/26 04:44:57;;;;;;;19.23;3.63;;;5.40;99.90;;;;;;5014169;28;38749;-73
2021/01/26 04:47:42;;;;;;;19.23;3.63;;;5.30;99.90;;;;;;5031162;28;37242;-74
2021/01/26 04:50:35;;;;;;;15.90;3.63;;;5.10;99.90;;;;;;5013365;28;38106;-74
2021/01/26 04:53:13;;;;;;;18.90;4.10;;;5.10;99.90;;;;;;5019179;28;39401;-74
2021/01/26 04:56:12;;;;;;;18.40;4.17;;;5.10;99.90;;;;;;5011730;28;46819;-74
2021/01/26 04:59:29;;;;;;;25.50;4.63;;;5.20;99.90;;;;;;5030842;28;46785;-73
2021/01/26 05:02:25;;;;;;;30.27;4.37;;;5.30;99.90;;;;;;4997787;28;46772;-74
2021/01/26 05:05:04;;;;;;;20.60;4.13;;;5.20;99.90;;;;;;4989083;28;47273;-74
2021/01/26 05:07:44;;;;;;;21.60;4.47;;;5.30;99.90;;;;;;5011678;28;48167;-74
2021/01/26 05:10:18;;;;;;;19.10;4.30;;;5.30;99.90;;;;;;5024972;28;37120;-74
2021/01/26 05:12:50;;;;;;;25.17;4.17;;;5.40;99.90;;;;;;5013545;28;48650;-73
2021/01/26 05:15:21;;;;;;;30.80;5.00;;;5.40;99.90;;;;;;5025548;28;38027;-74
2021/01/26 05:17:53;;;;;;;24.30;3.83;;;5.40;99.90;;;;;;5017135;28;38823;-75
2021/01/26 05:20:24;;;;;;;20.23;3.77;;;5.40;99.90;;;;;;5023559;28;39142;-73
2021/01/26 05:23:16;;;;;;;24.73;3.83;;;5.30;99.90;;;;;;5017891;28;38860;-74
2021/01/26 05:25:43;;;;;;;19.58;4.75;;;5.30;99.90;;;;;;5022477;28;48610;-74
2021/01/26 05:28:10;;;;;;;16.73;4.93;;;5.20;99.90;;;;;;5017964;28;39534;-74
2021/01/26 05:30:38;;;;;;;26.93;4.97;;;5.30;99.90;;;;;;5027520;28;39777;-73
2021/01/26 05:33:23;;;;;;;20.87;4.20;;;5.30;99.90;;;;;;5022916;28;38874;-74
2021/01/26 05:35:58;;;;;;;23.43;3.70;;;5.30;99.90;;;;;;5033576;28;37977;-74
2021/01/26 05:38:24;;;;;;;28.17;5.43;;;5.40;99.90;;;;;;5037952;28;40076;-73
2021/01/26 05:40:58;;;;;;;18.33;4.10;;;5.40;99.90;;;;;;5027893;28;38585;-73
2021/01/26 05:43:29;;;;;;;22.00;4.00;;;5.40;99.90;;;;;;5018552;28;38434;-74
2021/01/26 05:46:01;;;;;;;23.33;3.83;;;5.40;99.90;;;;;;5016977;28;37410;-74
2021/01/26 05:48:28;;;;;;;28.42;4.15;;;5.40;99.90;;;;;;5035422;28;48646;-74
2021/01/26 05:51:15;;;;;;;23.03;4.67;;;5.30;99.90;;;;;;5035260;28;38292;-74
2021/01/26 05:53:42;;;;;;;25.20;4.37;;;5.30;99.90;;;;;;5040276;28;47146;-75
2021/01/26 05:56:15;;;;;;;25.10;4.60;;;5.20;99.90;;;;;;5042575;27;38016;-74
2021/01/26 05:58:44;;;;;;;17.48;3.90;;;5.10;99.90;;;;;;5036769;27;38848;-74
2021/01/26 06:01:12;;;;;;;23.50;3.97;;;5.10;99.90;;;;;;5037692;27;39826;-75
2021/01/26 06:03:39;;;;;;;18.40;4.23;;;5.00;99.90;;;;;;5041331;28;37167;-75
2021/01/26 06:06:13;;;;;;;18.47;4.00;;;5.00;99.90;;;;;;5040988;27;38151;-75
2021/01/26 06:08:51;;;;;;;21.33;4.30;;;5.00;99.90;;;;;;5036794;28;39301;-74
2021/01/26 06:11:24;;;;;;;21.30;4.20;;;5.00;99.90;;;;;;5049230;28;38921;-75
2021/01/26 06:13:50;;;;;;;27.87;4.57;;;5.00;99.90;;;;;;5040656;28;36736;-75
2021/01/26 06:16:21;;;;;;;24.87;4.40;;;4.90;99.90;;;;;;5036103;27;37833;-74
2021/01/26 06:19:03;;;;;;;20.03;3.63;;;4.90;99.90;;;;;;5066827;28;39659;-75
2021/01/26 06:21:43;;;;;;;21.53;4.53;;;4.80;99.90;;;;;;5035740;28;47015;-74
2021/01/26 06:24:24;;;;;;;19.93;4.77;;;4.80;99.90;;;;;;5038309;28;37443;-74
2021/01/26 06:27:08;;;;;;;24.93;4.77;;;4.80;99.90;;;;;;5072345;28;38584;-74
2021/01/26 06:30:00;;;;;;;22.30;4.30;;;4.80;99.90;;;;;;5049838;28;47148;-75
2021/01/26 06:32:45;;;;;;;28.13;4.85;;;4.70;99.90;;;;;;5053434;27;39947;-73
2021/01/26 06:35:18;;;;;;;24.53;4.50;;;4.70;99.90;;;;;;5032690;28;37195;-74
2021/01/26 06:38:13;;;;;;;24.00;4.03;;;4.80;99.90;;;;;;5044867;27;36896;-73
2021/01/26 06:40:57;;;;;;;29.50;5.73;;;4.80;99.90;;;;;;5050319;27;47385;-73
2021/01/26 06:43:26;;;;;;;26.40;5.10;;;4.90;99.90;;;;;;5032971;28;39440;-75
2021/01/26 06:46:24;;;;;;;28.23;5.60;;;4.90;99.90;;;;;;5037607;27;38752;-73
2021/01/26 06:49:47;;;;;;;21.77;4.47;;;4.90;99.90;;;;;;5033990;28;48402;-74
2021/01/26 06:52:23;;;;;;;19.63;4.90;;;5.00;99.90;;;;;;4995922;28;48694;-74
2021/01/26 06:55:19;;;;;;;19.10;4.13;;;5.00;99.90;;;;;;4986379;28;38153;-73
2021/01/26 06:57:57;;;;;;;20.07;4.50;;;5.10;99.90;;;;;;5027471;28;47815;-74
2021/01/26 07:00:34;;;;;;;22.87;4.63;;;5.20;99.90;;;;;;5049900;28;37822;-73
2021/01/26 07:03:22;;;;;;;21.77;4.43;;;5.20;99.90;;;;;;5049186;28;39467;-73
2021/01/26 07:06:17;;;;;;;22.00;5.60;;;5.20;99.90;;;;;;5053598;28;47237;-73
2021/01/26 07:09:14;;;;;;;20.97;3.97;;;5.20;99.90;;;;;;5034466;28;47610;-73
2021/01/26 07:12:12;;;;;;;20.70;4.87;;;5.20;99.90;;;;;;5067783;28;48417;-74
2021/01/26 07:14:59;;;;;;;22.60;3.70;;;5.10;99.90;;;;;;5026888;28;48560;-74
2021/01/26 07:17:58;;;;;;;22.63;4.40;;;5.10;99.90;;;;;;5046426;28;38399;-73
2021/01/26 07:20:36;;;;;;;16.67;3.77;;;5.00;99.90;;;;;;5036706;28;39178;-75
2021/01/26 07:23:42;;;;;;;15.97;4.20;;;5.00;99.90;;;;;;5073886;28;35969;-76
2021/01/26 07:26:36;;;;;;;15.50;4.30;;;4.90;99.90;;;;;;5048883;28;47447;-75
2021/01/26 07:29:14;;;;;;;23.87;4.40;;;4.90;99.90;;;;;;5036075;28;38717;-74
2021/01/26 07:31:49;;;;;;;22.73;4.20;;;4.90;99.90;;;;;;5038352;28;48920;-73
2021/01/26 07:34:36;;;;;;;16.40;4.70;;;4.90;99.90;;;;;;5045276;28;38025;-73
2021/01/26 07:37:19;;;;;;;22.43;5.40;;;4.90;99.90;;;;;;5037222;28;38864;-74
2021/01/26 07:40:14;;;;;;;23.00;5.65;;;4.90;99.90;;;;;;5083168;27;39904;-73
2021/01/26 07:42:55;;;;;;;21.13;5.03;;;4.90;99.90;;;;;;5046086;28;37978;-74
2021/01/26 07:45:28;;;;;;;32.37;6.80;;;4.80;99.90;;;;;;5043740;28;38267;-75
2021/01/26 07:48:01;;;;;;;32.37;7.40;;;4.70;99.90;;;;;;5042104;28;40132;-76
2021/01/26 07:50:32;;;;;;;;;;;4.70;99.90;;;;;;5035709;28;38984;-76
2021/01/26 07:53:28;;;;;;;11.20;2.33;;;4.60;99.90;;;;;;5037972;28;38434;-75
2021/01/26 07:56:32;;;;;;;5.93;1.20;;;4.30;99.90;;;;;;5041571;27;48868;-74
2021/01/26 07:59:03;;;;;;;8.53;1.67;;;4.10;99.90;;;;;;5048106;28;47463;-75
2021/01/26 08:01:36;;;;;;;9.00;1.20;;;4.00;99.90;;;;;;5037159;28;36267;-74
2021/01/26 08:04:03;;;;;;;8.05;1.40;;;4.10;99.90;;;;;;5058783;28;37787;-79
2021/01/26 08:06:35;;;;;;;7.63;1.90;;;4.10;99.90;;;;;;5036051;28;36376;-75
2021/01/26 08:09:04;;;;;;;6.93;1.23;;;4.10;99.90;;;;;;5016536;28;38718;-75
2021/01/26 08:11:31;;;;;;;10.80;2.43;;;4.10;99.90;;;;;;5020097;28;37920;-75
2021/01/26 08:14:01;;;;;;;6.83;1.80;;;4.10;99.90;;;;;;5022852;28;39263;-78
2021/01/26 08:16:31;;;;;;;5.83;1.50;;;4.10;99.90;;;;;;5017765;28;37355;-78
2021/01/26 08:19:00;;;;;;;12.03;1.90;;;4.10;99.90;;;;;;5023296;28;40391;-76
2021/01/26 08:21:39;;;;;;;7.67;1.43;;;4.00;99.90;;;;;;5026527;28;38975;-76
2021/01/26 08:24:11;;;;;;;11.10;1.60;;;4.00;99.90;;;;;;5004983;28;38084;-75
2021/01/26 08:26:38;;;;;;;9.20;2.65;;;3.90;99.90;;;;;;5014176;28;37062;-74
2021/01/26 08:29:04;;;;;;;12.17;2.70;;;3.90;99.90;;;;;;5020041;28;40260;-74
2021/01/26 08:31:39;;;;;;;9.00;2.37;;;4.00;99.90;;;;;;5007596;28;45486;-75
2021/01/26 08:34:20;;;;;;;5.60;2.40;;;4.00;99.90;;;;;;5020100;28;38383;-75
2021/01/26 08:37:06;;;;;;;10.03;3.00;;;4.00;99.90;;;;;;5039618;28;36954;-76
2021/01/26 08:39:40;;;;;;;8.40;3.50;;;4.10;99.90;;;;;;5020046;28;46036;-74
2021/01/26 08:42:08;;;;;;;12.97;3.67;;;4.10;99.90;;;;;;5014415;28;39037;-76
2021/01/26 08:44:34;;;;;;;14.23;4.63;;;4.20;99.90;;;;;;5058501;28;37739;-75
2021/01/26 08:47:18;;;;;;;18.63;4.93;;;4.30;99.90;;;;;;5026322;28;37732;-75
2021/01/26 08:49:44;;;;;;;14.67;4.73;;;4.30;99.90;;;;;;5018525;28;48664;-76
2021/01/26 08:52:22;;;;;;;15.87;5.30;;;4.40;99.90;;;;;;5018140;28;39041;-76
2021/01/26 08:54:53;;;;;;;19.00;5.60;;;4.40;99.90;;;;;;5024508;28;37995;-75
2021/01/26 08:57:28;;;;;;;22.83;5.93;;;4.40;99.90;;;;;;5013239;28;37798;-74
2021/01/26 09:00:19;;;;;;;34.73;7.33;;;4.50;99.90;;;;;;5016602;28;38573;-75
2021/01/26 09:02:49;;;;;;;19.93;6.70;;;4.60;99.90;;;;;;5013335;28;48747;-75
2021/01/26 09:05:36;;;;;;;23.23;6.50;;;4.60;99.90;;;;;;5013837;28;38076;-76
2021/01/26 09:08:07;;;;;;;21.47;6.30;;;4.60;99.90;;;;;;5026782;28;36285;-74
2021/01/26 09:10:48;;;;;;;25.83;6.80;;;4.60;99.90;;;;;;5015547;28;38810;-75
2021/01/26 09:13:34;;;;;;;18.97;5.43;;;4.60;99.90;;;;;;5021282;28;39196;-74
2021/01/26 09:16:10;;;;;;;19.90;5.40;;;4.70;99.90;;;;;;5019761;28;37670;-74
2021/01/26 09:18:37;;;;;;;31.97;6.80;;;4.70;99.90;;;;;;5010306;28;47115;-74
2021/01/26 09:21:07;;;;;;;24.87;5.10;;;4.70;99.90;;;;;;5016189;28;37030;-76
2021/01/26 09:23:35;;;;;;;17.03;4.30;;;4.80;99.90;;;;;;5015907;28;39025;-77
2021/01/26 09:26:12;;;;;;;17.77;4.73;;;4.90;99.90;;;;;;5022353;28;37582;-77
2021/01/26 09:28:44;;;;;;;19.53;5.40;;;5.10;99.90;;;;;;5030837;28;48997;-73
2021/01/26 09:31:13;;;;;;;16.90;5.07;;;5.20;99.90;;;;;;5034606;28;39857;-75
2021/01/26 09:33:39;;;;;;;16.13;4.50;;;5.30;99.90;;;;;;5034715;28;39283;-77
2021/01/26 09:36:11;;;;;;;18.23;5.60;;;5.40;99.90;;;;;;5038434;28;37786;-74
2021/01/26 09:38:41;;;;;;;11.57;3.70;;;5.40;99.90;;;;;;5073516;28;37946;-77
2021/01/26 09:41:21;;;;;;;19.87;5.63;;;5.50;99.90;;;;;;5028509;28;39543;-76
2021/01/26 09:43:55;;;;;;;19.07;5.10;;;5.50;99.90;;;;;;5030769;28;39533;-76
2021/01/26 09:46:32;;;;;;;16.90;4.60;;;5.60;99.90;;;;;;5031882;28;39711;-74
2021/01/26 09:49:23;;;;;;;21.77;4.77;;;5.60;99.90;;;;;;5050247;28;37477;-75
2021/01/26 09:51:54;;;;;;;19.10;4.83;;;5.60;99.90;;;;;;5023734;28;47030;-76
2021/01/26 09:54:27;;;;;;;17.47;6.33;;;5.50;99.90;;;;;;5047571;28;39062;-77
2021/01/26 09:56:55;;;;;;;12.17;4.47;;;5.50;99.90;;;;;;5043767;28;39861;-74
2021/01/26 09:59:22;;;;;;;21.50;4.40;;;5.60;99.90;;;;;;5027936;28;37687;-74
2021/01/26 10:01:49;;;;;;;18.33;4.50;;;5.60;99.90;;;;;;5054420;28;39779;-76
2021/01/26 10:04:17;;;;;;;13.70;4.03;;;5.70;99.90;;;;;;5029685;28;38179;-74
2021/01/26 10:06:44;;;;;;;22.40;4.27;;;5.90;99.90;;;;;;5041205;28;38447;-75
2021/01/26 10:09:19;;;;;;;24.67;4.97;;;6.00;99.90;;;;;;5037873;28;38133;-75
2021/01/26 10:11:45;;;;;;;11.87;4.23;;;6.10;99.90;;;;;;5040351;28;38800;-74
2021/01/26 10:14:27;;;;;;;12.70;4.60;;;6.20;99.90;;;;;;5049549;28;38102;-74
2021/01/26 10:16:59;;;;;;;13.43;4.00;;;6.40;99.90;;;;;;5029711;28;37721;-72
2021/01/26 10:19:31;;;;;;;16.03;3.90;;;6.50;99.90;;;;;;5029871;28;36354;-72
2021/01/26 10:22:10;;;;;;;16.00;4.35;;;6.70;99.90;;;;;;5033411;28;39542;-74
2021/01/26 10:24:38;;;;;;;21.90;4.13;;;6.90;99.90;;;;;;5014792;28;47784;-74
2021/01/26 10:27:07;;;;;;;11.03;3.23;;;6.90;99.90;;;;;;5019130;28;37907;-74
2021/01/26 10:29:44;;;;;;;13.33;3.40;;;6.90;99.90;;;;;;5036329;28;38076;-74
2021/01/26 10:32:13;;;;;;;11.60;3.00;;;7.00;99.90;;;;;;5042276;28;39699;-75
2021/01/26 10:34:49;;;;;;;18.63;4.13;;;7.00;99.90;;;;;;5017776;28;38353;-74
2021/01/26 10:37:24;;;;;;;17.73;3.57;;;7.00;99.90;;;;;;5016054;28;38357;-74
2021/01/26 10:40:12;;;;;;;13.50;3.73;;;7.00;99.90;;;;;;5036217;28;37209;-74
2021/01/26 10:42:41;;;;;;;18.87;3.77;;;6.70;99.90;;;;;;5015821;28;48592;-75
2021/01/26 10:45:09;;;;;;;14.13;3.50;;;6.60;99.90;;;;;;5014123;27;39143;-74
2021/01/26 10:47:40;;;;;;;21.43;4.30;;;6.50;99.90;;;;;;5020541;28;38501;-73
2021/01/26 10:50:25;;;;;;;11.40;2.97;;;6.50;99.90;;;;;;5021268;28;37890;-74
2021/01/26 10:52:53;;;;;;;9.87;2.57;;;6.60;99.90;;;;;;5047062;28;39312;-74
2021/01/26 10:55:21;;;;;;;13.40;2.60;;;6.70;99.90;;;;;;5049751;28;39433;-73
2021/01/26 10:57:50;;;;;;;16.70;2.77;;;6.80;99.90;;;;;;5019202;28;38257;-73
2021/01/26 11:00:28;;;;;;;14.83;2.60;;;6.80;99.90;;;;;;5021018;28;37115;-76
2021/01/26 11:02:55;;;;;;;8.10;2.27;;;6.80;99.90;;;;;;5048272;28;39778;-72
2021/01/26 11:05:23;;;;;;;10.83;2.93;;;6.80;99.90;;;;;;5019514;28;38374;-75
2021/01/26 11:07:49;;;;;;;9.83;2.00;;;7.00;99.90;;;;;;5016870;28;37775;-73
2021/01/26 11:10:16;;;;;;;12.27;2.23;;;7.20;99.90;;;;;;5012009;28;37006;-75
2021/01/26 11:12:43;;;;;;;6.00;1.57;;;7.30;99.90;;;;;;5021381;28;37352;-74
2021/01/26 11:15:17;;;;;;;11.77;1.80;;;7.20;99.90;;;;;;5017805;28;38837;-73
2021/01/26 11:17:43;;;;;;;13.73;2.33;;;7.20;99.90;;;;;;5024620;28;39146;-73
2021/01/26 11:20:12;;;;;;;8.67;2.13;;;7.20;99.90;;;;;;5023715;28;37782;-76
2021/01/26 11:22:38;;;;;;;8.33;1.70;;;7.20;99.90;;;;;;5025928;28;39553;-74
2021/01/26 11:25:07;;;;;;;11.33;1.83;;;7.20;99.90;;;;;;5019252;28;40226;-73
2021/01/26 11:27:33;;;;;;;8.37;1.90;;;7.30;99.90;;;;;;5056914;28;38784;-75
2021/01/26 11:29:59;;;;;;;7.17;1.67;;;7.20;99.90;;;;;;5037720;28;36371;-75
2021/01/26 11:32:26;;;;;;;8.50;1.40;;;7.20;99.90;;;;;;5034860;28;38956;-74
2021/01/26 11:34:52;;;;;;;11.97;2.00;;;7.20;99.90;;;;;;5033454;28;37046;-74
2021/01/26 11:37:18;;;;;;;9.17;1.83;;;7.20;99.90;;;;;;5034346;28;37852;-74
2021/01/26 11:39:44;;;;;;;11.57;1.33;;;7.30;99.90;;;;;;5047869;28;37276;-74
2021/01/26 11:42:10;;;;;;;9.67;1.67;;;7.40;99.90;;;;;;5027936;28;39644;-74
2021/01/26 11:44:37;;;;;;;6.40;1.67;;;7.50;99.90;;;;;;5071244;28;38690;-74
2021/01/26 11:47:03;;;;;;;15.80;2.10;;;7.50;99.90;;;;;;5037182;28;37477;-75
2021/01/26 11:49:29;;;;;;;10.13;1.77;;;7.40;99.90;;;;;;5036951;28;38038;-73
2021/01/26 11:51:55;;;;;;;7.47;1.43;;;7.40;99.90;;;;;;5033762;28;38828;-73
2021/01/26 11:54:22;;;;;;;14.47;1.97;;;7.50;99.90;;;;;;5028036;28;38504;-74
2021/01/26 11:56:48;;;;;;;6.67;1.23;;;7.50;99.90;;;;;;5034862;28;38327;-74
2021/01/26 11:59:15;;;;;;;8.23;1.87;;;7.60;99.90;;;;;;5035505;28;37628;-74
2021/01/26 12:01:41;;;;;;;10.80;1.97;;;7.50;99.90;;;;;;5036958;28;38764;-73
2021/01/26 12:04:07;;;;;;;13.77;1.80;;;7.70;99.90;;;;;;5034601;28;40155;-74
2021/01/26 12:06:33;;;;;;;11.57;1.77;;;7.60;99.90;;;;;;5032500;28;37302;-74
2021/01/26 12:08:59;;;;;;;11.30;1.67;;;7.70;99.90;;;;;;5063464;28;38171;-73
2021/01/26 12:11:25;;;;;;;14.70;1.67;;;7.60;99.90;;;;;;5047458;28;39248;-74
2021/01/26 12:13:51;;;;;;;6.43;1.40;;;7.60;99.90;;;;;;5031940;28;38772;-75
2021/01/26 12:16:17;;;;;;;10.23;1.80;;;7.70;99.90;;;;;;5052778;28;38602;-74
2021/01/26 12:18:43;;;;;;;8.77;1.70;;;7.80;99.90;;;;;;5039738;28;38266;-73
2021/01/26 12:21:10;;;;;;;11.00;1.70;;;8.10;99.90;;;;;;5034966;28;39337;-74
2021/01/26 12:23:36;;;;;;;7.80;1.80;;;8.30;99.90;;;;;;5032606;28;38465;-74
2021/01/26 12:26:03;;;;;;;9.60;1.90;;;8.20;99.90;;;;;;5034843;28;38230;-74
2021/01/26 12:28:29;;;;;;;6.53;1.20;;;7.90;99.90;;;;;;5037454;28;37593;-74
2021/01/26 12:30:55;;;;;;;13.37;1.67;;;7.70;99.90;;;;;;5036705;28;41036;-73
2021/01/26 12:33:22;;;;;;;12.53;1.50;;;7.50;99.90;;;;;;5037481;28;38173;-73
2021/01/26 12:35:48;;;;;;;11.43;1.37;;;7.20;99.90;;;;;;5042119;28;37526;-73
2021/01/26 12:38:14;;;;;;;12.20;1.57;;;6.90;99.90;;;;;;5037148;28;36202;-73
2021/01/26 12:40:42;;;;;;;10.37;1.50;;;6.70;99.90;;;;;;5038122;28;37485;-74
2021/01/26 12:43:09;;;;;;;7.77;1.20;;;6.70;99.90;;;;;;5034987;28;39354;-73
2021/01/26 12:45:36;;;;;;;8.17;1.50;;;6.60;99.90;;;;;;5033579;28;38372;-73
2021/01/26 12:48:02;;;;;;;8.93;1.27;;;6.60;99.90;;;;;;5060676;28;37830;-74
2021/01/26 12:50:32;;;;;;;7.50;1.50;;;6.50;99.90;;;;;;5038186;27;38136;-74
2021/01/26 12:52:58;;;;;;;5.33;0.87;;;6.60;99.90;;;;;;5031864;28;38723;-74
2021/01/26 12:55:24;;;;;;;9.23;1.90;;;6.60;99.90;;;;;;5037229;28;37304;-74
2021/01/26 12:57:51;;;;;;;7.23;1.27;;;6.50;99.90;;;;;;5038392;28;37969;-74
2021/01/26 13:00:20;;;;;;;6.20;1.70;;;6.50;99.90;;;;;;5038120;28;39809;-74
2021/01/26 13:02:47;;;;;;;6.73;1.27;;;6.60;99.90;;;;;;5032732;28;40285;-73
2021/01/26 13:05:15;;;;;;;5.83;1.77;;;6.60;99.90;;;;;;5035601;28;37997;-75
2021/01/26 13:07:41;;;;;;;7.93;1.17;;;6.80;99.90;;;;;;5051540;28;37887;-73
2021/01/26 13:10:08;;;;;;;11.87;1.20;;;6.80;99.90;;;;;;5031698;28;39268;-73
2021/01/26 13:12:35;;;;;;;8.40;1.30;;;6.80;99.90;;;;;;5033934;28;37907;-73
2021/01/26 13:15:01;;;;;;;12.13;1.47;;;6.90;99.90;;;;;;5026103;28;37363;-75
2021/01/26 13:17:27;;;;;;;9.07;1.33;;;6.90;99.90;;;;;;5037594;28;37513;-74
2021/01/26 13:19:53;;;;;;;5.67;1.10;;;7.00;99.90;;;;;;5033814;28;40573;-73
2021/01/26 13:22:20;;;;;;;10.43;1.40;;;7.10;99.90;;;;;;5032191;28;38343;-73